sensor_id;sensor_type;location;lat;lon;timestamp;temperature;humidity
23499;DHT22;11926;48.120;11.562;2023-03-30T00:01:05;11.20;91.40
23499;DHT22;11926;48.120;11.562;2023-03-30T00:04:00;11.20;91.30
23499;DHT22;11926;48.120;11.562;2023-03-30T00:06:51;11.30;91.20
23499;DHT22;11926;48.120;11.562;2023-03-30T00:09:44;11.30;91.20
23499;DHT22;11926;48.120;11.562;2023-03-30T00:12:34;11.20;91.20
23499;DHT22;11926;48.120;11.562;2023-03-30T00:15:28;11.30;91.00
23499;DHT22;11926;48.120;11.562;2023-03-30T00:18:18;11.30;91.00
23499;DHT22;11926;48.120;11.562;2023-03-30T00:21:08;11.30;90.90
23499;DHT22;11926;48.120;11.562;2023-03-30T00:23:57;11.40;90.80
23499;DHT22;11926;48.120;11.562;2023-03-30T00:26:50;11.40;90.80
23499;DHT22;11926;48.120;11.562;2023-03-30T00:29:50;11.30;90.80
23499;DHT22;11926;48.120;11.562;2023-03-30T00:32:42;11.30;90.70
23499;DHT22;11926;48.120;11.562;2023-03-30T00:35:33;11.40;90.60
23499;DHT22;11926;48.120;11.562;2023-03-30T00:38:24;11.40;90.60
23499;DHT22;11926;48.120;11.562;2023-03-30T00:41:15;11.40;90.50
23499;DHT22;11926;48.120;11.562;2023-03-30T00:44:06;11.40;90.40
23499;DHT22;11926;48.120;11.562;2023-03-30T00:46:58;11.40;90.50
23499;DHT22;11926;48.120;11.562;2023-03-30T00:49:51;11.40;90.40
23499;DHT22;11926;48.120;11.562;2023-03-30T00:52:41;11.40;90.40
23499;DHT22;11926;48.120;11.562;2023-03-30T00:55:32;11.30;90.20
23499;DHT22;11926;48.120;11.562;2023-03-30T00:58:27;11.40;90.30
23499;DHT22;11926;48.120;11.562;2023-03-30T01:01:19;11.30;90.20
23499;DHT22;11926;48.120;11.562;2023-03-30T01:04:16;11.20;90.20
23499;DHT22;11926;48.120;11.562;2023-03-30T01:07:08;11.30;90.20
23499;DHT22;11926;48.120;11.562;2023-03-30T01:10:01;11.30;90.20
23499;DHT22;11926;48.120;11.562;2023-03-30T01:12:52;11.30;90.20
23499;DHT22;11926;48.120;11.562;2023-03-30T01:15:53;11.20;90.10
23499;DHT22;11926;48.120;11.562;2023-03-30T01:18:47;11.20;90.20
23499;DHT22;11926;48.120;11.562;2023-03-30T01:22:03;11.10;90.20
23499;DHT22;11926;48.120;11.562;2023-03-30T01:31:32;11.10;90.20
23499;DHT22;11926;48.120;11.562;2023-03-30T01:34:42;11.10;90.10
23499;DHT22;11926;48.120;11.562;2023-03-30T01:37:54;11.20;90.20
23499;DHT22;11926;48.120;11.562;2023-03-30T01:41:00;11.20;90.20
23499;DHT22;11926;48.120;11.562;2023-03-30T01:44:00;11.30;90.10
23499;DHT22;11926;48.120;11.562;2023-03-30T01:46:56;11.30;90.10
23499;DHT22;11926;48.120;11.562;2023-03-30T01:49:55;11.30;90.10
23499;DHT22;11926;48.120;11.562;2023-03-30T01:52:52;11.30;90.10
23499;DHT22;11926;48.120;11.562;2023-03-30T01:55:47;11.30;90.00
23499;DHT22;11926;48.120;11.562;2023-03-30T01:58:50;11.30;90.10
23499;DHT22;11926;48.120;11.562;2023-03-30T02:01:42;11.30;90.00
23499;DHT22;11926;48.120;11.562;2023-03-30T02:04:39;11.40;90.10
23499;DHT22;11926;48.120;11.562;2023-03-30T02:07:35;11.40;90.00
23499;DHT22;11926;48.120;11.562;2023-03-30T02:10:31;11.50;90.00
23499;DHT22;11926;48.120;11.562;2023-03-30T02:13:25;11.50;89.80
23499;DHT22;11926;48.120;11.562;2023-03-30T02:16:22;11.50;89.70
23499;DHT22;11926;48.120;11.562;2023-03-30T02:19:14;11.50;89.60
23499;DHT22;11926;48.120;11.562;2023-03-30T02:22:05;11.50;89.60
23499;DHT22;11926;48.120;11.562;2023-03-30T02:24:56;11.50;89.60
23499;DHT22;11926;48.120;11.562;2023-03-30T02:27:48;11.60;89.40
23499;DHT22;11926;48.120;11.562;2023-03-30T02:30:43;11.60;89.40
23499;DHT22;11926;48.120;11.562;2023-03-30T02:33:43;11.70;89.20
23499;DHT22;11926;48.120;11.562;2023-03-30T02:36:52;11.80;89.20
23499;DHT22;11926;48.120;11.562;2023-03-30T02:39:57;11.90;88.90
23499;DHT22;11926;48.120;11.562;2023-03-30T02:43:02;12.00;89.60
23499;DHT22;11926;48.120;11.562;2023-03-30T02:46:07;12.10;88.70
23499;DHT22;11926;48.120;11.562;2023-03-30T02:49:12;12.20;88.90
23499;DHT22;11926;48.120;11.562;2023-03-30T02:52:20;12.30;89.10
23499;DHT22;11926;48.120;11.562;2023-03-30T02:55:18;12.30;89.20
23499;DHT22;11926;48.120;11.562;2023-03-30T02:58:34;12.30;89.50
23499;DHT22;11926;48.120;11.562;2023-03-30T03:01:34;12.40;90.10
23499;DHT22;11926;48.120;11.562;2023-03-30T03:04:38;12.40;90.10
23499;DHT22;11926;48.120;11.562;2023-03-30T03:07:39;12.40;90.20
23499;DHT22;11926;48.120;11.562;2023-03-30T03:10:30;12.40;90.30
23499;DHT22;11926;48.120;11.562;2023-03-30T03:13:24;12.40;90.40
23499;DHT22;11926;48.120;11.562;2023-03-30T03:16:15;12.40;90.50
23499;DHT22;11926;48.120;11.562;2023-03-30T03:19:25;12.40;90.50
23499;DHT22;11926;48.120;11.562;2023-03-30T03:22:20;12.40;90.60
23499;DHT22;11926;48.120;11.562;2023-03-30T03:25:12;12.40;90.90
23499;DHT22;11926;48.120;11.562;2023-03-30T03:28:12;12.40;91.00
23499;DHT22;11926;48.120;11.562;2023-03-30T03:31:07;12.40;91.40
23499;DHT22;11926;48.120;11.562;2023-03-30T03:34:00;12.40;91.70
23499;DHT22;11926;48.120;11.562;2023-03-30T03:37:10;12.40;91.90
23499;DHT22;11926;48.120;11.562;2023-03-30T03:40:06;12.30;92.20
23499;DHT22;11926;48.120;11.562;2023-03-30T03:42:57;12.30;92.40
23499;DHT22;11926;48.120;11.562;2023-03-30T03:45:48;12.30;92.50
23499;DHT22;11926;48.120;11.562;2023-03-30T03:48:40;12.30;92.70
23499;DHT22;11926;48.120;11.562;2023-03-30T03:51:30;12.20;92.80
23499;DHT22;11926;48.120;11.562;2023-03-30T03:54:22;12.20;93.00
23499;DHT22;11926;48.120;11.562;2023-03-30T03:57:13;12.20;93.30
23499;DHT22;11926;48.120;11.562;2023-03-30T04:00:05;12.20;93.50
23499;DHT22;11926;48.120;11.562;2023-03-30T04:03:05;12.20;93.70
23499;DHT22;11926;48.120;11.562;2023-03-30T04:05:58;12.20;93.80
23499;DHT22;11926;48.120;11.562;2023-03-30T04:08:50;12.20;94.00
23499;DHT22;11926;48.120;11.562;2023-03-30T04:11:57;12.20;94.20
23499;DHT22;11926;48.120;11.562;2023-03-30T04:14:59;12.20;94.20
23499;DHT22;11926;48.120;11.562;2023-03-30T04:18:09;12.10;94.40
23499;DHT22;11926;48.120;11.562;2023-03-30T04:21:12;12.00;94.50
23499;DHT22;11926;48.120;11.562;2023-03-30T04:24:18;12.00;94.60
23499;DHT22;11926;48.120;11.562;2023-03-30T04:27:30;12.00;94.80
23499;DHT22;11926;48.120;11.562;2023-03-30T04:30:42;12.00;95.00
23499;DHT22;11926;48.120;11.562;2023-03-30T04:33:53;12.00;95.10
23499;DHT22;11926;48.120;11.562;2023-03-30T04:36:52;12.00;95.20
23499;DHT22;11926;48.120;11.562;2023-03-30T04:39:46;12.00;95.40
23499;DHT22;11926;48.120;11.562;2023-03-30T04:42:55;12.00;95.50
23499;DHT22;11926;48.120;11.562;2023-03-30T04:45:49;12.00;95.60
23499;DHT22;11926;48.120;11.562;2023-03-30T04:48:44;11.90;95.30
23499;DHT22;11926;48.120;11.562;2023-03-30T04:51:41;12.00;95.70
23499;DHT22;11926;48.120;11.562;2023-03-30T04:54:51;12.00;95.80
23499;DHT22;11926;48.120;11.562;2023-03-30T04:57:51;12.00;95.90
23499;DHT22;11926;48.120;11.562;2023-03-30T05:00:57;12.00;96.10
23499;DHT22;11926;48.120;11.562;2023-03-30T05:04:06;12.00;96.20
23499;DHT22;11926;48.120;11.562;2023-03-30T05:07:16;12.00;96.30
23499;DHT22;11926;48.120;11.562;2023-03-30T05:10:10;12.00;96.30
23499;DHT22;11926;48.120;11.562;2023-03-30T05:13:12;12.00;96.50
23499;DHT22;11926;48.120;11.562;2023-03-30T05:16:25;12.00;96.40
23499;DHT22;11926;48.120;11.562;2023-03-30T05:19:31;12.10;96.60
23499;DHT22;11926;48.120;11.562;2023-03-30T05:22:41;12.10;96.70
23499;DHT22;11926;48.120;11.562;2023-03-30T05:25:42;12.10;96.70
23499;DHT22;11926;48.120;11.562;2023-03-30T05:28:38;12.00;96.70
23499;DHT22;11926;48.120;11.562;2023-03-30T05:31:38;12.00;96.70
23499;DHT22;11926;48.120;11.562;2023-03-30T05:34:31;12.00;96.80
23499;DHT22;11926;48.120;11.562;2023-03-30T05:37:43;12.00;97.00
23499;DHT22;11926;48.120;11.562;2023-03-30T05:40:33;12.00;97.00
23499;DHT22;11926;48.120;11.562;2023-03-30T05:43:30;12.00;97.00
23499;DHT22;11926;48.120;11.562;2023-03-30T05:46:23;12.00;97.10
23499;DHT22;11926;48.120;11.562;2023-03-30T05:49:32;12.00;97.10
23499;DHT22;11926;48.120;11.562;2023-03-30T05:52:30;12.00;97.20
23499;DHT22;11926;48.120;11.562;2023-03-30T05:55:26;12.10;97.20
23499;DHT22;11926;48.120;11.562;2023-03-30T05:58:30;12.10;97.60
23499;DHT22;11926;48.120;11.562;2023-03-30T06:01:42;12.00;97.30
23499;DHT22;11926;48.120;11.562;2023-03-30T06:04:38;12.00;97.40
23499;DHT22;11926;48.120;11.562;2023-03-30T06:07:30;12.00;97.50
23499;DHT22;11926;48.120;11.562;2023-03-30T06:10:20;12.10;97.50
23499;DHT22;11926;48.120;11.562;2023-03-30T06:13:11;12.10;97.50
23499;DHT22;11926;48.120;11.562;2023-03-30T06:16:07;12.20;97.50
23499;DHT22;11926;48.120;11.562;2023-03-30T06:18:58;12.20;97.50
23499;DHT22;11926;48.120;11.562;2023-03-30T06:21:50;12.20;97.60
23499;DHT22;11926;48.120;11.562;2023-03-30T06:24:54;12.30;97.60
23499;DHT22;11926;48.120;11.562;2023-03-30T06:27:45;12.30;97.60
23499;DHT22;11926;48.120;11.562;2023-03-30T06:30:38;12.40;97.70
23499;DHT22;11926;48.120;11.562;2023-03-30T06:33:31;12.40;97.60
23499;DHT22;11926;48.120;11.562;2023-03-30T06:36:20;12.40;97.60
23499;DHT22;11926;48.120;11.562;2023-03-30T06:39:30;12.50;97.60
23499;DHT22;11926;48.120;11.562;2023-03-30T06:42:26;12.50;97.60
23499;DHT22;11926;48.120;11.562;2023-03-30T06:45:33;12.50;97.70
23499;DHT22;11926;48.120;11.562;2023-03-30T06:48:24;12.60;97.70
23499;DHT22;11926;48.120;11.562;2023-03-30T06:51:34;12.60;97.60
23499;DHT22;11926;48.120;11.562;2023-03-30T06:54:26;12.60;97.70
23499;DHT22;11926;48.120;11.562;2023-03-30T06:57:27;12.70;97.80
23499;DHT22;11926;48.120;11.562;2023-03-30T07:00:17;12.70;97.60
23499;DHT22;11926;48.120;11.562;2023-03-30T07:03:28;12.70;97.50
23499;DHT22;11926;48.120;11.562;2023-03-30T07:06:18;12.60;97.50
23499;DHT22;11926;48.120;11.562;2023-03-30T07:09:08;12.70;97.70
23499;DHT22;11926;48.120;11.562;2023-03-30T07:11:59;12.70;97.70
23499;DHT22;11926;48.120;11.562;2023-03-30T07:14:54;12.80;97.80
23499;DHT22;11926;48.120;11.562;2023-03-30T07:17:45;12.90;97.80
23499;DHT22;11926;48.120;11.562;2023-03-30T07:20:36;13.00;97.70
23499;DHT22;11926;48.120;11.562;2023-03-30T07:23:36;13.10;97.60
23499;DHT22;11926;48.120;11.562;2023-03-30T07:26:43;13.30;97.50
23499;DHT22;11926;48.120;11.562;2023-03-30T07:29:35;13.40;97.20
23499;DHT22;11926;48.120;11.562;2023-03-30T07:32:28;13.60;97.20
23499;DHT22;11926;48.120;11.562;2023-03-30T07:35:17;13.80;97.00
23499;DHT22;11926;48.120;11.562;2023-03-30T07:38:06;13.90;96.60
23499;DHT22;11926;48.120;11.562;2023-03-30T07:41:00;13.90;96.40
23499;DHT22;11926;48.120;11.562;2023-03-30T07:43:49;13.90;96.30
23499;DHT22;11926;48.120;11.562;2023-03-30T07:46:37;14.00;96.10
23499;DHT22;11926;48.120;11.562;2023-03-30T07:49:38;13.90;96.00
23499;DHT22;11926;48.120;11.562;2023-03-30T07:52:26;13.90;96.20
23499;DHT22;11926;48.120;11.562;2023-03-30T07:55:19;14.00;96.20
23499;DHT22;11926;48.120;11.562;2023-03-30T07:58:17;14.00;96.10
23499;DHT22;11926;48.120;11.562;2023-03-30T08:01:05;14.00;96.00
23499;DHT22;11926;48.120;11.562;2023-03-30T08:04:13;14.00;95.80
23499;DHT22;11926;48.120;11.562;2023-03-30T08:07:03;13.90;95.70
23499;DHT22;11926;48.120;11.562;2023-03-30T08:09:51;13.80;95.80
23499;DHT22;11926;48.120;11.562;2023-03-30T08:12:39;13.90;95.90
23499;DHT22;11926;48.120;11.562;2023-03-30T08:15:27;13.90;95.80
23499;DHT22;11926;48.120;11.562;2023-03-30T08:18:15;14.00;95.80
23499;DHT22;11926;48.120;11.562;2023-03-30T08:21:03;14.10;95.90
23499;DHT22;11926;48.120;11.562;2023-03-30T08:23:54;14.20;95.60
23499;DHT22;11926;48.120;11.562;2023-03-30T08:26:44;14.30;95.60
23499;DHT22;11926;48.120;11.562;2023-03-30T08:29:32;14.40;95.50
23499;DHT22;11926;48.120;11.562;2023-03-30T08:32:21;14.60;95.30
23499;DHT22;11926;48.120;11.562;2023-03-30T08:35:09;14.70;95.00
23499;DHT22;11926;48.120;11.562;2023-03-30T08:37:58;14.90;95.10
23499;DHT22;11926;48.120;11.562;2023-03-30T08:40:49;15.10;94.60
23499;DHT22;11926;48.120;11.562;2023-03-30T08:43:45;15.40;94.10
23499;DHT22;11926;48.120;11.562;2023-03-30T08:46:38;15.60;93.70
23499;DHT22;11926;48.120;11.562;2023-03-30T08:49:32;15.50;93.50
23499;DHT22;11926;48.120;11.562;2023-03-30T08:52:25;15.40;93.50
23499;DHT22;11926;48.120;11.562;2023-03-30T08:55:21;15.40;93.40
23499;DHT22;11926;48.120;11.562;2023-03-30T08:58:18;15.30;93.60
23499;DHT22;11926;48.120;11.562;2023-03-30T09:01:17;15.30;93.80
23499;DHT22;11926;48.120;11.562;2023-03-30T09:04:16;15.40;93.80
23499;DHT22;11926;48.120;11.562;2023-03-30T09:07:09;15.60;93.60
23499;DHT22;11926;48.120;11.562;2023-03-30T09:10:10;15.60;93.40
23499;DHT22;11926;48.120;11.562;2023-03-30T09:13:00;15.80;93.20
23499;DHT22;11926;48.120;11.562;2023-03-30T09:15:53;15.90;93.30
23499;DHT22;11926;48.120;11.562;2023-03-30T09:18:49;16.10;92.80
23499;DHT22;11926;48.120;11.562;2023-03-30T09:21:41;16.20;92.40
23499;DHT22;11926;48.120;11.562;2023-03-30T09:24:35;16.20;92.40
23499;DHT22;11926;48.120;11.562;2023-03-30T09:27:33;16.50;92.10
23499;DHT22;11926;48.120;11.562;2023-03-30T09:30:36;16.60;92.20
23499;DHT22;11926;48.120;11.562;2023-03-30T09:33:37;17.00;92.10
23499;DHT22;11926;48.120;11.562;2023-03-30T09:36:33;18.00;91.40
23499;DHT22;11926;48.120;11.562;2023-03-30T09:39:27;19.00;89.90
23499;DHT22;11926;48.120;11.562;2023-03-30T09:42:26;19.90;85.80
23499;DHT22;11926;48.120;11.562;2023-03-30T09:45:22;20.20;82.30
23499;DHT22;11926;48.120;11.562;2023-03-30T09:48:15;20.30;80.40
23499;DHT22;11926;48.120;11.562;2023-03-30T09:51:14;20.30;80.00
23499;DHT22;11926;48.120;11.562;2023-03-30T09:54:04;20.60;79.90
23499;DHT22;11926;48.120;11.562;2023-03-30T09:56:53;20.90;78.30
23499;DHT22;11926;48.120;11.562;2023-03-30T09:59:42;20.90;75.40
23499;DHT22;11926;48.120;11.562;2023-03-30T10:02:31;20.50;74.90
23499;DHT22;11926;48.120;11.562;2023-03-30T10:05:19;20.30;75.40
23499;DHT22;11926;48.120;11.562;2023-03-30T10:08:21;20.10;74.70
23499;DHT22;11926;48.120;11.562;2023-03-30T10:11:10;19.90;75.70
23499;DHT22;11926;48.120;11.562;2023-03-30T10:13:58;20.00;76.00
23499;DHT22;11926;48.120;11.562;2023-03-30T10:16:46;20.50;74.10
23499;DHT22;11926;48.120;11.562;2023-03-30T10:19:34;21.40;74.80
23499;DHT22;11926;48.120;11.562;2023-03-30T10:22:25;22.30;70.40
23499;DHT22;11926;48.120;11.562;2023-03-30T10:25:20;22.20;67.60
23499;DHT22;11926;48.120;11.562;2023-03-30T10:28:16;21.90;67.30
23499;DHT22;11926;48.120;11.562;2023-03-30T10:31:13;22.00;67.20
23499;DHT22;11926;48.120;11.562;2023-03-30T10:34:04;22.20;66.20
23499;DHT22;11926;48.120;11.562;2023-03-30T10:36:53;22.10;66.10
23499;DHT22;11926;48.120;11.562;2023-03-30T10:39:43;21.80;64.20
23499;DHT22;11926;48.120;11.562;2023-03-30T10:42:34;21.30;63.80
23499;DHT22;11926;48.120;11.562;2023-03-30T10:45:37;20.70;64.90
23499;DHT22;11926;48.120;11.562;2023-03-30T10:48:39;20.10;66.10
23499;DHT22;11926;48.120;11.562;2023-03-30T10:51:38;19.60;67.50
23499;DHT22;11926;48.120;11.562;2023-03-30T10:54:31;19.10;68.90
23499;DHT22;11926;48.120;11.562;2023-03-30T10:57:25;18.80;70.70
23499;DHT22;11926;48.120;11.562;2023-03-30T11:00:24;18.50;71.40
23499;DHT22;11926;48.120;11.562;2023-03-30T11:03:21;18.20;72.50
23499;DHT22;11926;48.120;11.562;2023-03-30T11:06:13;18.10;73.60
23499;DHT22;11926;48.120;11.562;2023-03-30T11:09:07;17.90;74.30
23499;DHT22;11926;48.120;11.562;2023-03-30T11:12:00;17.80;75.50
23499;DHT22;11926;48.120;11.562;2023-03-30T11:14:51;17.70;76.00
23499;DHT22;11926;48.120;11.562;2023-03-30T11:17:52;17.70;76.10
23499;DHT22;11926;48.120;11.562;2023-03-30T11:20:46;17.50;76.30
23499;DHT22;11926;48.120;11.562;2023-03-30T11:23:43;17.40;77.00
23499;DHT22;11926;48.120;11.562;2023-03-30T11:26:37;17.30;78.10
23499;DHT22;11926;48.120;11.562;2023-03-30T11:29:32;17.20;78.60
23499;DHT22;11926;48.120;11.562;2023-03-30T11:32:29;17.00;79.10
23499;DHT22;11926;48.120;11.562;2023-03-30T11:35:26;16.80;80.40
23499;DHT22;11926;48.120;11.562;2023-03-30T11:38:20;16.60;81.50
23499;DHT22;11926;48.120;11.562;2023-03-30T11:41:10;16.40;82.50
23499;DHT22;11926;48.120;11.562;2023-03-30T11:43:59;16.20;81.90
23499;DHT22;11926;48.120;11.562;2023-03-30T11:46:56;16.20;82.60
23499;DHT22;11926;48.120;11.562;2023-03-30T11:49:56;16.00;82.60
23499;DHT22;11926;48.120;11.562;2023-03-30T11:53:01;15.90;83.10
23499;DHT22;11926;48.120;11.562;2023-03-30T11:56:01;15.70;83.00
23499;DHT22;11926;48.120;11.562;2023-03-30T11:59:01;15.50;83.60
23499;DHT22;11926;48.120;11.562;2023-03-30T12:02:04;15.40;84.70
23499;DHT22;11926;48.120;11.562;2023-03-30T12:04:56;15.20;85.40
23499;DHT22;11926;48.120;11.562;2023-03-30T12:07:52;15.00;86.40
23499;DHT22;11926;48.120;11.562;2023-03-30T12:10:47;14.80;87.20
23499;DHT22;11926;48.120;11.562;2023-03-30T12:13:38;14.60;88.10
23499;DHT22;11926;48.120;11.562;2023-03-30T12:16:41;14.40;88.70
23499;DHT22;11926;48.120;11.562;2023-03-30T12:19:38;14.10;89.50
23499;DHT22;11926;48.120;11.562;2023-03-30T12:22:44;14.00;90.00
23499;DHT22;11926;48.120;11.562;2023-03-30T12:25:43;13.80;90.60
23499;DHT22;11926;48.120;11.562;2023-03-30T12:28:44;13.60;90.40
23499;DHT22;11926;48.120;11.562;2023-03-30T12:32:18;13.50;90.80
23499;DHT22;11926;48.120;11.562;2023-03-30T12:41:14;13.30;91.30
23499;DHT22;11926;48.120;11.562;2023-03-30T12:44:23;13.30;91.50
23499;DHT22;11926;48.120;11.562;2023-03-30T12:47:32;13.30;91.70
23499;DHT22;11926;48.120;11.562;2023-03-30T12:50:30;13.30;91.90
23499;DHT22;11926;48.120;11.562;2023-03-30T12:56:57;13.40;91.90
23499;DHT22;11926;48.120;11.562;2023-03-30T12:59:58;13.30;92.10
23499;DHT22;11926;48.120;11.562;2023-03-30T13:03:04;13.30;92.30
23499;DHT22;11926;48.120;11.562;2023-03-30T13:05:57;13.30;92.30
23499;DHT22;11926;48.120;11.562;2023-03-30T13:08:53;13.20;92.40
23499;DHT22;11926;48.120;11.562;2023-03-30T13:11:43;13.20;92.50
23499;DHT22;11926;48.120;11.562;2023-03-30T13:14:44;13.20;92.60
23499;DHT22;11926;48.120;11.562;2023-03-30T13:17:48;13.20;92.70
23499;DHT22;11926;48.120;11.562;2023-03-30T13:21:03;13.10;92.80
23499;DHT22;11926;48.120;11.562;2023-03-30T13:24:03;13.10;92.90
23499;DHT22;11926;48.120;11.562;2023-03-30T13:26:51;13.10;93.10
23499;DHT22;11926;48.120;11.562;2023-03-30T13:29:40;13.00;93.10
23499;DHT22;11926;48.120;11.562;2023-03-30T13:32:39;13.00;93.20
23499;DHT22;11926;48.120;11.562;2023-03-30T13:35:45;13.00;93.40
23499;DHT22;11926;48.120;11.562;2023-03-30T13:38:46;13.10;93.80
23499;DHT22;11926;48.120;11.562;2023-03-30T13:41:48;13.10;93.50
23499;DHT22;11926;48.120;11.562;2023-03-30T13:44:51;13.00;93.50
23499;DHT22;11926;48.120;11.562;2023-03-30T13:47:51;13.00;93.50
23499;DHT22;11926;48.120;11.562;2023-03-30T13:50:45;13.00;93.60
23499;DHT22;11926;48.120;11.562;2023-03-30T13:53:38;13.00;93.60
23499;DHT22;11926;48.120;11.562;2023-03-30T13:56:31;13.00;93.70
23499;DHT22;11926;48.120;11.562;2023-03-30T13:59:22;13.00;93.80
23499;DHT22;11926;48.120;11.562;2023-03-30T14:02:15;13.00;94.20
23499;DHT22;11926;48.120;11.562;2023-03-30T14:05:13;13.00;93.90
23499;DHT22;11926;48.120;11.562;2023-03-30T14:08:00;13.00;94.00
23499;DHT22;11926;48.120;11.562;2023-03-30T14:10:50;13.00;94.00
23499;DHT22;11926;48.120;11.562;2023-03-30T14:13:38;13.00;94.10
23499;DHT22;11926;48.120;11.562;2023-03-30T14:16:30;12.90;94.20
23499;DHT22;11926;48.120;11.562;2023-03-30T14:19:23;12.90;94.30
23499;DHT22;11926;48.120;11.562;2023-03-30T14:22:16;13.00;94.40
23499;DHT22;11926;48.120;11.562;2023-03-30T14:25:21;13.00;94.50
23499;DHT22;11926;48.120;11.562;2023-03-30T14:28:12;13.00;94.50
23499;DHT22;11926;48.120;11.562;2023-03-30T14:31:03;13.00;94.60
23499;DHT22;11926;48.120;11.562;2023-03-30T14:33:52;12.90;94.60
23499;DHT22;11926;48.120;11.562;2023-03-30T14:36:43;12.90;94.70
23499;DHT22;11926;48.120;11.562;2023-03-30T14:39:35;12.90;94.70
23499;DHT22;11926;48.120;11.562;2023-03-30T14:42:27;12.90;94.80
23499;DHT22;11926;48.120;11.562;2023-03-30T14:45:19;12.90;94.90
23499;DHT22;11926;48.120;11.562;2023-03-30T14:48:09;12.90;95.00
23499;DHT22;11926;48.120;11.562;2023-03-30T14:51:00;12.90;95.00
23499;DHT22;11926;48.120;11.562;2023-03-30T14:53:50;12.90;95.10
23499;DHT22;11926;48.120;11.562;2023-03-30T14:56:38;13.00;95.30
23499;DHT22;11926;48.120;11.562;2023-03-30T14:59:26;13.10;95.20
23499;DHT22;11926;48.120;11.562;2023-03-30T15:02:18;13.20;95.30
23499;DHT22;11926;48.120;11.562;2023-03-30T15:05:07;13.30;95.30
23499;DHT22;11926;48.120;11.562;2023-03-30T15:07:55;13.50;95.10
23499;DHT22;11926;48.120;11.562;2023-03-30T15:10:49;13.50;94.80
23499;DHT22;11926;48.120;11.562;2023-03-30T15:13:40;13.60;94.50
23499;DHT22;11926;48.120;11.562;2023-03-30T15:16:32;13.60;94.40
23499;DHT22;11926;48.120;11.562;2023-03-30T15:19:26;13.50;94.20
23499;DHT22;11926;48.120;11.562;2023-03-30T15:22:21;13.40;94.10
23499;DHT22;11926;48.120;11.562;2023-03-30T15:25:13;13.40;93.90
23499;DHT22;11926;48.120;11.562;2023-03-30T15:28:04;13.30;93.70
23499;DHT22;11926;48.120;11.562;2023-03-30T15:30:53;13.20;93.70
23499;DHT22;11926;48.120;11.562;2023-03-30T15:33:45;13.20;93.70
23499;DHT22;11926;48.120;11.562;2023-03-30T15:36:36;13.10;93.60
23499;DHT22;11926;48.120;11.562;2023-03-30T15:39:26;13.10;93.50
23499;DHT22;11926;48.120;11.562;2023-03-30T15:42:24;13.00;93.50
23499;DHT22;11926;48.120;11.562;2023-03-30T15:45:16;13.00;93.30
23499;DHT22;11926;48.120;11.562;2023-03-30T15:48:08;13.00;93.20
23499;DHT22;11926;48.120;11.562;2023-03-30T15:51:01;13.00;93.20
23499;DHT22;11926;48.120;11.562;2023-03-30T15:53:53;13.00;93.10
23499;DHT22;11926;48.120;11.562;2023-03-30T15:56:47;13.00;93.20
23499;DHT22;11926;48.120;11.562;2023-03-30T15:59:39;13.10;92.90
23499;DHT22;11926;48.120;11.562;2023-03-30T16:02:53;13.10;92.70
23499;DHT22;11926;48.120;11.562;2023-03-30T16:05:43;13.10;92.60
23499;DHT22;11926;48.120;11.562;2023-03-30T16:08:31;13.00;92.40
23499;DHT22;11926;48.120;11.562;2023-03-30T16:11:18;13.00;92.30
23499;DHT22;11926;48.120;11.562;2023-03-30T16:14:12;13.00;92.10
23499;DHT22;11926;48.120;11.562;2023-03-30T16:17:00;13.00;92.30
23499;DHT22;11926;48.120;11.562;2023-03-30T16:19:49;13.00;92.30
23499;DHT22;11926;48.120;11.562;2023-03-30T16:22:37;13.20;92.30
23499;DHT22;11926;48.120;11.562;2023-03-30T16:25:26;13.20;92.10
23499;DHT22;11926;48.120;11.562;2023-03-30T16:28:18;13.30;92.20
23499;DHT22;11926;48.120;11.562;2023-03-30T16:31:12;13.30;91.80
23499;DHT22;11926;48.120;11.562;2023-03-30T16:34:00;13.30;91.70
23499;DHT22;11926;48.120;11.562;2023-03-30T16:36:50;13.30;91.50
23499;DHT22;11926;48.120;11.562;2023-03-30T16:39:37;13.20;91.30
23499;DHT22;11926;48.120;11.562;2023-03-30T16:42:25;13.10;91.40
23499;DHT22;11926;48.120;11.562;2023-03-30T16:45:13;13.00;91.30
23499;DHT22;11926;48.120;11.562;2023-03-30T16:48:01;13.00;91.40
23499;DHT22;11926;48.120;11.562;2023-03-30T16:50:51;12.90;91.50
23499;DHT22;11926;48.120;11.562;2023-03-30T16:53:41;12.80;91.50
23499;DHT22;11926;48.120;11.562;2023-03-30T16:56:29;12.70;91.60
23499;DHT22;11926;48.120;11.562;2023-03-30T16:59:21;12.60;91.60
23499;DHT22;11926;48.120;11.562;2023-03-30T17:02:10;12.60;91.70
23499;DHT22;11926;48.120;11.562;2023-03-30T17:05:03;12.50;91.80
23499;DHT22;11926;48.120;11.562;2023-03-30T17:07:52;12.40;91.80
23499;DHT22;11926;48.120;11.562;2023-03-30T17:10:41;12.40;91.90
23499;DHT22;11926;48.120;11.562;2023-03-30T17:13:30;12.30;92.00
23499;DHT22;11926;48.120;11.562;2023-03-30T17:16:18;12.30;92.10
23499;DHT22;11926;48.120;11.562;2023-03-30T17:19:11;12.20;92.10
23499;DHT22;11926;48.120;11.562;2023-03-30T17:21:58;12.30;92.20
23499;DHT22;11926;48.120;11.562;2023-03-30T17:24:46;12.20;92.20
23499;DHT22;11926;48.120;11.562;2023-03-30T17:27:35;12.20;92.20
23499;DHT22;11926;48.120;11.562;2023-03-30T17:30:24;12.30;92.10
23499;DHT22;11926;48.120;11.562;2023-03-30T17:33:12;12.30;92.00
23499;DHT22;11926;48.120;11.562;2023-03-30T17:36:03;12.30;92.00
23499;DHT22;11926;48.120;11.562;2023-03-30T17:38:51;12.30;91.90
23499;DHT22;11926;48.120;11.562;2023-03-30T17:41:39;12.30;91.80
23499;DHT22;11926;48.120;11.562;2023-03-30T17:44:28;12.30;91.80
23499;DHT22;11926;48.120;11.562;2023-03-30T17:47:16;12.30;91.70
23499;DHT22;11926;48.120;11.562;2023-03-30T17:50:16;12.30;91.60
23499;DHT22;11926;48.120;11.562;2023-03-30T17:53:04;12.20;91.60
23499;DHT22;11926;48.120;11.562;2023-03-30T17:55:52;12.10;91.50
23499;DHT22;11926;48.120;11.562;2023-03-30T17:58:40;12.10;91.50
23499;DHT22;11926;48.120;11.562;2023-03-30T18:01:29;12.00;91.50
23499;DHT22;11926;48.120;11.562;2023-03-30T18:04:21;12.00;91.50
23499;DHT22;11926;48.120;11.562;2023-03-30T18:07:10;12.00;91.50
23499;DHT22;11926;48.120;11.562;2023-03-30T18:09:58;12.00;91.60
23499;DHT22;11926;48.120;11.562;2023-03-30T18:12:45;11.90;91.50
23499;DHT22;11926;48.120;11.562;2023-03-30T18:15:33;11.90;91.50
23499;DHT22;11926;48.120;11.562;2023-03-30T18:18:25;11.90;91.50
23499;DHT22;11926;48.120;11.562;2023-03-30T18:21:12;11.90;91.50
23499;DHT22;11926;48.120;11.562;2023-03-30T18:24:00;11.80;91.40